Time;durP1;ratioP1;P1;durP2;ratioP2;P2;SDS_P1;SDS_P2;PMS_P1;PMS_P2;Temp;Humidity;BMP_temperature;BMP_pressure;BME280_temperature;BME280_humidity;BME280_pressure;Samples;Min_cycle;Max_cycle;Signal;HPM_P1;HPM_P2
2023/03/23 00:00:29;;;;;;;;;;;16.90;49.60;;;15.85;50.95;100276.53;12251495;19;19944;-88
2023/03/23 00:04:31;;;;;;;;;;;16.90;49.70;;;15.59;50.92;100226.06;12254660;19;19925;-88
2023/03/23 00:08:37;;;;;;;;;;;16.90;49.80;;;15.45;50.82;100201.75;12253053;19;20320;-88
2023/03/23 00:12:41;;;;;;;;;;;16.80;49.70;;;15.42;50.90;100204.66;12253099;19;19914;-88
2023/03/23 00:16:44;;;;;;;;;;;16.80;49.70;;;15.78;50.85;100249.09;12251892;19;20274;-88
2023/03/23 00:20:48;;;;;;;;;;;16.80;49.70;;;15.75;50.90;100242.28;12246448;19;19917;-88
2023/03/23 00:24:50;;;;;;;;;;;16.80;49.70;;;15.72;51.04;100237.28;12252983;19;19922;-88
2023/03/23 00:28:56;;;;;;;;;;;16.80;49.70;;;15.67;50.92;100221.81;12248617;19;20328;-88
2023/03/23 00:32:57;;;;;;;;;;;16.70;49.70;;;15.34;50.83;100182.53;12248498;19;19919;-88
2023/03/23 00:36:59;;;;;;;;;;;16.70;49.70;;;15.57;50.96;100228.81;12249009;19;19911;-88
2023/03/23 00:41:02;;;;;;;;;;;16.60;49.70;;;15.56;50.92;100231.59;12254252;19;19919;-88
2023/03/23 00:45:10;;;;;;;;;;;16.60;50.10;;;15.53;50.97;100229.19;12269792;19;19938;-89
2023/03/23 00:49:13;;;;;;;;;;;16.50;49.70;;;15.48;51.08;100219.91;12283409;19;19922;-90
2023/03/23 00:53:15;;;;;;;;;;;16.50;49.70;;;15.43;50.81;100222.09;12272196;19;19917;-89
2023/03/23 00:57:17;;;;;;;;;;;16.40;49.70;;;15.38;50.87;100211.13;12269038;19;19907;-88
2023/03/23 01:01:19;;;;;;;;;;;16.40;49.70;;;15.27;50.86;100204.13;12256949;19;19924;-89
2023/03/23 01:05:20;;;;;;;;;;;16.40;49.70;;;15.23;50.85;100200.09;12256323;19;20206;-89
2023/03/23 01:09:22;;;;;;;;;;;16.30;49.70;;;15.21;51.08;100195.91;12255152;19;19953;-89
2023/03/23 01:13:24;;;;;;;;;;;16.30;49.70;;;15.03;50.84;100180.69;12255211;19;19919;-89
2023/03/23 01:17:25;;;;;;;;;;;16.20;49.70;;;14.85;50.94;100155.91;12251638;19;19949;-89
2023/03/23 01:21:27;;;;;;;;;;;16.20;49.70;;;14.99;50.84;100184.53;12251851;19;20504;-88
2023/03/23 01:25:35;;;;;;;;;;;16.10;49.70;;;14.98;50.88;100180.22;12254785;19;19910;-89
2023/03/23 01:29:36;;;;;;;;;;;16.00;49.60;;;14.81;50.90;100150.06;12252853;19;19918;-89
2023/03/23 01:33:39;;;;;;;;;;;16.00;49.70;;;14.88;50.87;100171.44;12252835;19;20653;-89
2023/03/23 01:37:42;;;;;;;;;;;15.90;49.70;;;14.84;50.99;100170.03;12253305;19;19947;-88
2023/03/23 01:41:43;;;;;;;;;;;15.90;49.70;;;14.72;50.89;100163.97;12250554;19;19946;-88
2023/03/23 01:45:47;;;;;;;;;;;15.80;49.70;;;14.72;50.97;100171.03;12259296;19;19919;-89
2023/03/23 01:49:50;;;;;;;;;;;15.80;49.80;;;14.57;50.95;100147.66;12263811;19;19979;-88
2023/03/23 01:53:58;;;;;;;;;;;15.70;49.70;;;14.65;51.08;100167.22;12266016;19;19930;-88
2023/03/23 01:57:59;;;;;;;;;;;15.70;49.80;;;14.56;50.98;100161.75;12261251;19;20277;-88
2023/03/23 02:02:01;;;;;;;;;;;15.60;49.70;;;14.49;51.02;100165.78;12259830;19;19919;-89
2023/03/23 02:06:04;;;;;;;;;;;15.60;49.70;;;14.31;50.91;100135.75;12264007;19;19914;-89
2023/03/23 02:10:13;;;;;;;;;;;15.50;49.70;;;14.39;51.04;100146.47;12260613;19;19915;-88
2023/03/23 02:14:15;;;;;;;;;;;15.50;49.70;;;14.24;50.85;100126.72;12264086;19;20246;-88
2023/03/23 02:18:27;;;;;;;;;;;15.40;49.70;;;14.37;50.96;100158.91;12256391;19;19926;-88
2023/03/23 02:22:41;;;;;;;;;;;15.40;49.80;;;14.32;51.00;100147.94;12261725;19;19934;-89
2023/03/23 02:27:13;;;;;;;;;;;15.30;49.80;;;14.22;51.05;100136.50;12261283;19;19922;-89
2023/03/23 02:31:43;;;;;;;;;;;15.30;49.80;;;14.24;51.08;100145.94;12259923;19;19979;-89
2023/03/23 02:35:50;;;;;;;;;;;15.30;49.80;;;14.13;50.98;100132.81;12260213;19;20285;-88
2023/03/23 02:39:56;;;;;;;;;;;15.20;49.80;;;14.10;51.08;100128.66;12259082;19;20352;-88
2023/03/23 02:44:01;;;;;;;;;;;15.20;49.80;;;14.07;50.96;100123.66;12257779;19;19914;-88
2023/03/23 02:48:05;;;;;;;;;;;15.10;49.80;;;14.08;51.01;100132.34;12257749;19;19921;-89
2023/03/23 02:52:14;;;;;;;;;;;15.10;49.80;;;13.99;51.11;100118.16;12254455;19;19946;-88
2023/03/23 02:56:18;;;;;;;;;;;15.10;49.90;;;13.82;51.04;100095.84;12261718;19;19926;-89
2023/03/23 03:00:20;;;;;;;;;;;15.10;49.90;;;13.94;51.16;100117.69;12250963;19;19925;-88
2023/03/23 03:04:24;;;;;;;;;;;15.10;49.90;;;14.04;51.15;100131.78;12258020;19;19922;-88
2023/03/23 03:08:45;;;;;;;;;;;15.10;49.90;;;13.87;51.22;100121.75;12259341;19;19919;-89
2023/03/23 03:13:03;;;;;;;;;;;15.10;49.90;;;14.06;51.23;100147.38;12259726;19;19911;-89
2023/03/23 03:17:18;;;;;;;;;;;15.10;50.00;;;14.06;51.35;100148.22;12256992;19;19922;-89
2023/03/23 03:21:25;;;;;;;;;;;15.10;50.00;;;13.53;51.22;100048.31;12254400;19;19930;-89
2023/03/23 03:25:30;;;;;;;;;;;15.20;50.10;;;14.07;51.29;100123.66;12256034;19;20392;-88
2023/03/23 03:29:35;;;;;;;;;;;15.20;50.00;;;14.02;51.31;100111.84;12255672;19;19952;-88
2023/03/23 03:33:37;;;;;;;;;;;15.20;50.00;;;13.78;51.21;100081.31;12255270;19;19938;-88
2023/03/23 03:37:39;;;;;;;;;;;15.20;50.00;;;14.13;51.26;100133.66;12254497;19;19923;-89
2023/03/23 03:41:44;;;;;;;;;;;15.20;50.10;;;14.09;51.28;100120.88;12253310;19;19936;-88
2023/03/23 03:45:45;;;;;;;;;;;15.30;50.10;;;14.05;51.33;100104.53;12255321;19;19919;-88
2023/03/23 03:49:47;;;;;;;;;;;15.30;50.10;;;14.20;51.30;100127.91;12254948;19;19919;-88
2023/03/23 03:53:49;;;;;;;;;;;15.30;50.10;;;14.05;51.37;100096.66;12254469;19;20324;-89
2023/03/23 03:57:51;;;;;;;;;;;15.30;50.10;;;14.17;51.29;100100.91;12252815;19;19934;-89
2023/03/23 04:02:13;;;;;;;;;;;15.40;50.10;;;14.05;51.41;100066.97;12256491;19;19907;-89
2023/03/23 04:06:16;;;;;;;;;;;15.40;50.10;;;13.98;51.35;100057.91;12254403;19;19911;-89
2023/03/23 04:10:21;;;;;;;;;;;15.40;50.10;;;14.22;51.48;100097.09;12252813;19;19918;-88
2023/03/23 04:14:25;;;;;;;;;;;15.40;50.10;;;14.22;51.44;100097.94;12253593;19;19927;-88
2023/03/23 04:18:31;;;;;;;;;;;15.40;50.10;;;14.21;51.62;100092.81;12250492;19;19918;-89
2023/03/23 04:22:33;;;;;;;;;;;15.50;50.20;;;14.24;51.53;100095.19;12252455;19;20278;-89
2023/03/23 04:26:36;;;;;;;;;;;15.50;50.20;;;14.24;51.38;100074.19;12253101;19;20007;-89
2023/03/23 04:30:48;;;;;;;;;;;15.50;50.10;;;14.33;51.52;100078.69;12253084;19;19914;-88
2023/03/23 04:34:51;;;;;;;;;;;15.60;50.20;;;14.15;51.81;100054.78;12254082;19;19928;-89
2023/03/23 04:38:55;;;;;;;;;;;15.60;50.20;;;14.27;51.44;100074.75;12250831;19;19922;-88
2023/03/23 04:43:05;;;;;;;;;;;15.60;50.20;;;14.38;51.44;100076.53;12255339;19;19918;-89
2023/03/23 04:47:32;;;;;;;;;;;15.60;50.20;;;14.42;51.42;100101.59;12253518;19;19926;-89
2023/03/23 04:51:36;;;;;;;;;;;15.60;50.20;;;14.39;51.53;100093.94;12249984;19;19915;-89
2023/03/23 04:55:51;;;;;;;;;;;15.60;50.30;;;14.11;51.54;100048.91;12246561;19;20734;-89
2023/03/23 04:59:54;;;;;;;;;;;15.60;50.30;;;14.24;51.58;100072.41;12248035;19;19994;-88
2023/03/23 05:04:09;;;;;;;;;;;15.60;50.30;;;14.29;51.55;100085.16;12249261;19;19915;-88
2023/03/23 05:08:11;;;;;;;;;;;15.60;50.30;;;14.36;51.48;100100.28;12248548;19;20320;-88
2023/03/23 05:12:16;;;;;;;;;;;15.60;50.30;;;14.44;51.50;100111.97;12251255;19;19915;-89
2023/03/23 05:16:48;;;;;;;;;;;15.60;50.30;;;14.41;51.51;100105.16;12246315;19;19918;-88
2023/03/23 05:20:53;;;;;;;;;;;15.60;50.40;;;14.27;51.48;100071.31;12265230;19;19915;-88
2023/03/23 05:24:58;;;;;;;;;;;15.60;50.30;;;14.12;51.54;100053.22;12270368;19;19922;-88
2023/03/23 05:29:00;;;;;;;;;;;15.60;50.40;;;14.35;51.61;100090.75;12270201;19;19921;-88
2023/03/23 05:33:14;;;;;;;;;;;15.60;50.40;;;14.35;51.68;100098.63;12266948;19;20340;-88
2023/03/23 05:37:34;;;;;;;;;;;15.60;50.40;;;14.41;51.62;100120.09;12270036;19;20305;-88
2023/03/23 05:41:44;;;;;;;;;;;15.60;50.30;;;14.45;51.61;100137.28;12266276;19;19922;-88
2023/03/23 05:45:46;;;;;;;;;;;15.60;50.40;;;14.42;51.65;100124.38;12271049;19;19922;-88
2023/03/23 05:49:48;;;;;;;;;;;15.60;50.40;;;14.20;51.55;100088.50;12272404;19;19966;-88
2023/03/23 05:53:53;;;;;;;;;;;15.60;50.30;;;14.44;51.67;100123.28;12269791;19;20256;-88
2023/03/23 05:57:55;;;;;;;;;;;15.60;50.40;;;14.47;51.68;100138.81;12267853;19;20333;-88
2023/03/23 06:02:13;;;;;;;;;;;15.70;50.50;;;14.43;51.71;100129.53;12271117;19;20623;-88
2023/03/23 06:06:16;;;;;;;;;;;15.70;50.50;;;14.40;51.57;100124.53;12270847;19;20351;-88
2023/03/23 06:10:27;;;;;;;;;;;15.70;50.60;;;14.42;51.64;100140.13;12268587;19;19979;-88
2023/03/23 06:14:36;;;;;;;;;;;15.70;50.70;;;14.45;51.72;100148.63;12269649;19;19975;-88
2023/03/23 06:18:40;;;;;;;;;;;15.70;50.70;;;14.25;51.73;100126.56;12265110;19;19934;-88
2023/03/23 06:23:03;;;;;;;;;;;15.70;50.80;;;14.39;51.69;100146.47;12269164;19;20341;-88
2023/03/23 06:27:10;;;;;;;;;;;15.60;50.80;;;14.39;51.74;100170.13;12269349;19;19907;-88
2023/03/23 06:31:14;;;;;;;;;;;15.60;50.80;;;14.14;51.82;100137.09;12259443;19;19945;-88
2023/03/23 06:35:16;;;;;;;;;;;15.50;50.90;;;13.90;51.75;100116.25;12257105;19;19927;-88
2023/03/23 06:39:38;;;;;;;;;;;15.50;51.00;;;14.26;51.88;100179.97;12254088;19;19923;-88
2023/03/23 06:44:02;;;;;;;;;;;15.40;51.10;;;14.00;51.85;100138.19;12255644;19;19923;-89
2023/03/23 06:48:06;;;;;;;;;;;15.40;51.20;;;14.26;51.84;100178.16;12257306;19;19951;-88
2023/03/23 06:52:13;;;;;;;;;;;15.40;51.30;;;14.25;51.76;100175.66;12257068;19;19915;-88
2023/03/23 06:56:15;;;;;;;;;;;15.40;51.30;;;14.25;51.92;100179.09;12256111;19;19915;-88
2023/03/23 07:00:18;;;;;;;;;;;15.40;51.40;;;14.27;51.83;100190.31;12254515;19;19922;-88
2023/03/23 07:04:19;;;;;;;;;;;15.40;51.40;;;14.16;51.85;100175.41;12256278;19;19935;-88
2023/03/23 07:08:30;;;;;;;;;;;15.40;51.50;;;13.97;51.94;100143.69;12255554;19;19925;-89
2023/03/23 07:12:33;;;;;;;;;;;15.40;51.60;;;14.26;52.02;100186.03;12255545;19;19922;-89
2023/03/23 07:16:34;;;;;;;;;;;15.40;51.60;;;14.30;51.94;100190.06;12252892;19;19926;-89
2023/03/23 07:20:37;;;;;;;;;;;15.40;51.70;;;14.26;51.94;100186.03;12249753;19;20330;-88
2023/03/23 07:24:39;;;;;;;;;;;15.40;51.80;;;14.17;52.06;100182.31;12255649;19;19925;-89
2023/03/23 07:29:12;;;;;;;;;;;15.40;51.80;;;14.24;52.07;100197.63;12253340;19;19914;-91
2023/03/23 07:33:18;;;;;;;;;;;15.40;51.80;;;14.03;52.10;100161.59;12254416;19;20325;-88
2023/03/23 07:37:20;;;;;;;;;;;15.40;51.90;;;14.25;52.09;100204.53;12252578;19;19922;-88
2023/03/23 07:41:25;;;;;;;;;;;15.40;52.00;;;14.04;52.00;100165.91;12250195;19;19911;-89
2023/03/23 07:45:29;;;;;;;;;;;15.40;52.00;;;14.16;52.21;100179.84;12254041;19;19940;-88
2023/03/23 07:49:32;;;;;;;;;;;15.30;52.20;;;14.22;52.19;100195.09;12252136;19;19925;-89
2023/03/23 07:53:46;;;;;;;;;;;15.30;52.20;;;14.21;52.24;100190.00;12253978;19;19923;-88
2023/03/23 07:58:08;;;;;;;;;;;15.40;52.30;;;14.22;52.27;100199.53;12251811;19;19915;-89
2023/03/23 08:02:11;;;;;;;;;;;15.40;52.30;;;14.28;52.34;100204.28;12253440;19;19914;-89
2023/03/23 08:06:24;;;;;;;;;;;15.40;52.50;;;14.20;52.28;100176.00;12255119;19;19934;-89
2023/03/23 08:10:49;;;;;;;;;;;15.40;52.50;;;14.11;52.40;100140.81;12251584;19;19926;-89
2023/03/23 08:15:14;;;;;;;;;;;15.50;53.00;;;14.36;52.41;100144.94;12257611;19;19923;-88
2023/03/23 08:19:27;;;;;;;;;;;15.50;53.20;;;14.38;52.46;100129.06;12250496;19;19956;-89
2023/03/23 08:23:52;;;;;;;;;;;15.50;53.10;;;14.39;52.49;100143.84;12252825;19;19932;-89
2023/03/23 08:28:13;;;;;;;;;;;15.50;53.20;;;14.43;52.45;100152.34;12251575;19;19989;-88
2023/03/23 08:32:34;;;;;;;;;;;15.50;54.00;;;14.34;52.53;100152.13;12255078;19;19922;-88
2023/03/23 08:36:47;;;;;;;;;;;15.60;53.60;;;14.47;52.56;100178.22;12251504;19;19986;-89
2023/03/23 08:41:07;;;;;;;;;;;15.60;53.30;;;14.54;52.65;100189.94;12252211;19;19919;-89
2023/03/23 08:45:36;;;;;;;;;;;15.60;53.30;;;14.54;52.67;100174.19;12254862;19;19978;-91
2023/03/23 08:49:54;;;;;;;;;;;15.70;54.00;;;14.23;52.56;100138.16;12252867;19;19919;-91
2023/03/23 08:54:04;;;;;;;;;;;15.70;53.60;;;14.57;52.95;100194.94;12253728;19;19944;-90
2023/03/23 08:58:32;;;;;;;;;;;15.70;53.40;;;14.55;52.77;100196.84;12246731;19;19915;-91
2023/03/23 09:03:00;;;;;;;;;;;15.80;53.20;;;14.50;52.79;100182.38;12250388;19;19923;-90
2023/03/23 09:07:12;;;;;;;;;;;15.80;53.40;;;14.71;52.71;100190.38;12250784;19;20284;-90
2023/03/23 09:11:14;;;;;;;;;;;15.80;53.20;;;14.67;52.90;100160.06;12246467;19;19930;-91
2023/03/23 09:15:17;;;;;;;;;;;15.90;54.70;;;14.75;52.79;100186.56;12248891;19;20258;-90
2023/03/23 09:19:20;;;;;;;;;;;15.90;54.40;;;14.58;52.85;100156.38;12247275;19;19918;-90
2023/03/23 09:23:21;;;;;;;;;;;15.90;53.60;;;14.76;52.96;100186.41;12246021;19;19928;-87
2023/03/23 09:27:23;;;;;;;;;;;16.00;54.00;;;14.90;52.95;100194.97;12247706;19;19911;-87
2023/03/23 09:31:26;;;;;;;;;;;16.00;54.10;;;14.71;53.00;100153.56;12246066;19;19931;-87
2023/03/23 09:35:30;;;;;;;;;;;16.10;53.70;;;15.05;52.98;100191.91;12250313;19;19938;-89
2023/03/23 09:39:31;;;;;;;;;;;16.20;53.80;;;15.09;52.98;100181.97;12246602;19;19926;-86
2023/03/23 09:44:13;;;;;;;;;;;16.30;53.70;;;15.23;53.07;100189.56;12250544;19;20268;-86
2023/03/23 09:48:44;;;;;;;;;;;16.30;53.80;;;15.31;53.14;100186.31;12249526;19;19921;-86
2023/03/23 09:53:01;;;;;;;;;;;16.40;54.10;;;15.33;53.07;100191.41;12250374;19;19907;-86
2023/03/23 09:57:04;;;;;;;;;;;16.50;53.90;;;15.41;53.21;100197.69;12248497;19;19918;-87
2023/03/23 10:01:10;;;;;;;;;;;16.60;53.70;;;15.46;53.38;100197.31;12250482;19;19991;-85
2023/03/23 10:05:36;;;;;;;;;;;16.60;53.50;;;15.58;53.27;100200.69;12251041;19;19919;-86
2023/03/23 10:09:38;;;;;;;;;;;16.70;53.90;;;15.65;53.12;100196.59;12258955;19;20349;-86
2023/03/23 10:14:18;;;;;;;;;;;16.80;54.20;;;15.76;53.38;100196.53;12261134;19;19922;-86
2023/03/23 10:18:36;;;;;;;;;;;16.90;54.00;;;15.82;53.34;100201.28;12259665;19;19922;-86
2023/03/23 10:22:48;;;;;;;;;;;17.00;53.50;;;15.58;53.25;100140.16;12263679;19;20360;-86
2023/03/23 10:27:08;;;;;;;;;;;17.10;53.60;;;15.99;53.31;100194.56;12297452;19;19914;-87
2023/03/23 10:31:18;;;;;;;;;;;17.20;53.30;;;16.02;53.22;100188.22;12307898;19;19943;-87
2023/03/23 10:35:43;;;;;;;;;;;17.30;53.40;;;15.95;53.23;100160.72;12311563;19;19907;-86
2023/03/23 10:39:44;;;;;;;;;;;17.30;53.40;;;16.18;53.36;100175.38;12299257;19;19914;-87
2023/03/23 10:43:49;;;;;;;;;;;17.40;53.20;;;16.24;53.20;100177.47;12297624;19;19913;-87
2023/03/23 10:48:23;;;;;;;;;;;17.40;53.00;;;16.24;53.34;100172.19;12290483;19;19922;-87
2023/03/23 10:52:34;;;;;;;;;;;17.50;53.10;;;16.28;53.36;100170.97;12279637;19;19923;-89
2023/03/23 10:56:42;;;;;;;;;;;17.60;53.50;;;16.41;53.46;100180.41;12275388;19;19915;-87
2023/03/23 11:00:47;;;;;;;;;;;17.60;53.10;;;16.35;53.30;100169.44;12273607;19;19914;-87
2023/03/23 11:04:59;;;;;;;;;;;17.70;53.00;;;16.43;53.27;100176.66;12276658;19;19919;-88
2023/03/23 11:09:09;;;;;;;;;;;17.70;52.80;;;16.50;53.27;100185.72;12271570;19;19926;-88
2023/03/23 11:13:15;;;;;;;;;;;17.80;52.60;;;16.50;53.23;100171.69;12275109;19;19931;-87
2023/03/23 11:17:24;;;;;;;;;;;17.80;52.70;;;16.60;53.11;100193.63;12270058;19;19933;-89
2023/03/23 11:21:27;;;;;;;;;;;17.80;52.70;;;16.46;53.16;100159.75;12269005;19;19919;-89
2023/03/23 11:25:28;;;;;;;;;;;17.90;52.60;;;16.64;53.21;100189.75;12271265;19;19922;-89
2023/03/23 11:29:30;;;;;;;;;;;17.90;52.60;;;16.60;53.14;100176.00;12271660;19;19914;-90
2023/03/23 11:33:47;;;;;;;;;;;17.90;52.50;;;16.62;53.38;100175.88;12274958;19;19921;-90
2023/03/23 11:37:58;;;;;;;;;;;18.00;52.40;;;16.75;53.44;100178.25;12264265;19;19925;-87
2023/03/23 11:42:12;;;;;;;;;;;18.00;52.40;;;16.87;53.29;100195.63;12265342;19;19914;-87
2023/03/23 11:46:18;;;;;;;;;;;18.10;52.40;;;16.90;53.48;100195.34;12270629;19;19926;-88
2023/03/23 11:50:29;;;;;;;;;;;18.10;52.30;;;16.79;53.17;100162.00;12261843;19;19910;-87
2023/03/23 11:54:46;;;;;;;;;;;18.20;52.30;;;16.94;53.12;100182.72;12261699;19;19953;-87
2023/03/23 11:58:47;;;;;;;;;;;18.20;52.30;;;17.06;53.17;100194.78;12256915;19;19923;-86
2023/03/23 12:03:26;;;;;;;;;;;18.20;52.20;;;17.13;53.29;100200.34;12261734;19;19966;-86
2023/03/23 12:07:28;;;;;;;;;;;18.30;52.10;;;17.17;53.02;100207.00;12260404;19;19935;-87
2023/03/23 12:11:36;;;;;;;;;;;18.30;52.10;;;17.23;53.05;100209.09;12260358;19;19918;-88
2023/03/23 12:16:16;;;;;;;;;;;18.40;52.10;;;17.28;53.41;100206.00;12259368;19;19935;-89
2023/03/23 12:20:43;;;;;;;;;;;18.50;52.00;;;17.34;53.36;100205.47;12259401;19;19947;-89
2023/03/23 12:24:50;;;;;;;;;;;18.50;51.90;;;17.40;52.99;100204.91;12263799;19;20257;-89
2023/03/23 12:29:02;;;;;;;;;;;18.60;51.90;;;17.47;53.05;100205.97;12257614;19;19934;-89
2023/03/23 12:33:35;;;;;;;;;;;18.60;51.90;;;17.53;53.00;100191.41;12261520;19;19919;-89
2023/03/23 12:37:49;;;;;;;;;;;18.70;51.70;;;17.60;53.16;100198.59;12261434;19;19914;-89
2023/03/23 12:42:03;;;;;;;;;;;18.80;51.70;;;17.64;53.18;100199.97;12256978;19;19926;-89
2023/03/23 12:46:14;;;;;;;;;;;18.90;51.80;;;17.69;52.88;100187.19;12253140;19;19919;-88
2023/03/23 12:50:41;;;;;;;;;;;18.90;51.40;;;17.73;53.17;100187.72;12248296;19;19986;-88
2023/03/23 12:55:02;;;;;;;;;;;18.90;51.30;;;17.72;53.00;100178.13;12250609;19;19923;-87
2023/03/23 12:59:15;;;;;;;;;;;19.00;51.30;;;17.77;52.97;100177.69;12245610;19;19990;-88
2023/03/23 13:03:49;;;;;;;;;;;18.90;51.30;;;17.70;52.73;100151.84;12246942;19;19923;-87
2023/03/23 13:08:00;;;;;;;;;;;19.00;51.10;;;17.78;52.82;100150.31;12246944;19;19983;-88
2023/03/23 13:12:04;;;;;;;;;;;19.00;50.90;;;17.61;52.54;100130.78;12245148;19;20240;-87
2023/03/23 13:16:32;;;;;;;;;;;19.00;51.00;;;17.85;52.92;100191.06;12247797;19;19915;-88
2023/03/23 13:20:47;;;;;;;;;;;19.10;50.90;;;17.81;52.96;100164.09;12246797;19;19915;-87
2023/03/23 13:24:56;;;;;;;;;;;19.10;51.20;;;17.87;53.06;100162.66;12247987;19;19919;-88
2023/03/23 13:29:04;;;;;;;;;;;19.10;51.00;;;17.92;52.87;100155.13;12245945;19;19919;-88
2023/03/23 13:33:11;;;;;;;;;;;19.20;50.80;;;17.95;52.69;100149.56;12247414;19;19915;-88
2023/03/23 13:37:16;;;;;;;;;;;19.20;50.20;;;18.14;52.93;100165.31;12244915;19;19925;-87
2023/03/23 13:41:21;;;;;;;;;;;19.30;50.90;;;18.00;52.81;100133.28;12251877;19;20564;-88
2023/03/23 13:45:22;;;;;;;;;;;19.40;50.80;;;18.26;52.81;100163.31;12258172;19;20253;-87
2023/03/23 13:49:25;;;;;;;;;;;19.40;50.60;;;18.07;52.54;100121.97;12257293;19;19979;-87
2023/03/23 13:53:45;;;;;;;;;;;19.50;50.40;;;18.31;52.48;100139.91;12258899;19;19932;-88
2023/03/23 13:57:57;;;;;;;;;;;19.50;50.60;;;18.34;52.47;100152.81;12257088;19;19918;-87
2023/03/23 14:02:29;;;;;;;;;;;19.50;50.40;;;18.40;52.45;100161.16;12255544;19;19911;-88
2023/03/23 14:06:35;;;;;;;;;;;19.60;50.40;;;18.38;52.82;100145.41;12257911;19;20382;-88
2023/03/23 14:10:50;;;;;;;;;;;19.60;50.00;;;18.45;52.70;100165.00;12254510;19;20339;-87
2023/03/23 14:15:01;;;;;;;;;;;19.60;50.10;;;18.41;52.58;100147.75;12256544;19;19930;-87
2023/03/23 14:19:14;;;;;;;;;;;19.70;50.40;;;18.41;52.35;100150.41;12252381;19;19948;-88
2023/03/23 14:23:17;;;;;;;;;;;19.70;50.00;;;18.49;52.44;100145.19;12258578;19;20348;-88
2023/03/23 14:27:23;;;;;;;;;;;19.70;50.20;;;18.44;52.63;100134.25;12255805;19;19943;-89
2023/03/23 14:31:26;;;;;;;;;;;19.70;50.30;;;18.58;52.56;100154.06;12257617;19;19923;-88
2023/03/23 14:35:31;;;;;;;;;;;19.80;50.10;;;18.47;52.30;100123.38;12257771;19;19923;-87
2023/03/23 14:39:33;;;;;;;;;;;19.80;49.60;;;18.58;52.16;100140.84;12254751;19;19938;-88
2023/03/23 14:43:35;;;;;;;;;;;19.80;49.50;;;18.61;52.19;100148.47;12256072;19;19952;-88
2023/03/23 14:47:42;;;;;;;;;;;19.90;50.00;;;18.60;52.19;100140.69;12258742;19;19911;-87
2023/03/23 14:51:53;;;;;;;;;;;19.80;49.60;;;18.60;52.29;100125.63;12253512;19;20333;-87
2023/03/23 14:55:56;;;;;;;;;;;19.90;49.80;;;18.51;52.09;100122.09;12255862;19;19915;-89
2023/03/23 14:59:59;;;;;;;;;;;19.80;49.90;;;18.45;52.10;100106.84;12251607;19;20586;-86
2023/03/23 15:04:06;;;;;;;;;;;19.80;50.00;;;18.67;52.16;100147.03;12248756;19;19998;-87
2023/03/23 15:08:18;;;;;;;;;;;19.80;50.10;;;18.58;51.92;100141.66;12256492;19;19919;-88
2023/03/23 15:12:25;;;;;;;;;;;19.80;50.00;;;18.60;51.87;100138.03;12253874;19;19936;-86
2023/03/23 15:16:29;;;;;;;;;;;19.80;50.10;;;18.56;52.08;100148.09;12253079;19;19926;-86
2023/03/23 15:20:51;;;;;;;;;;;19.70;50.00;;;18.63;51.95;100145.66;12252575;19;19940;-85
2023/03/23 15:25:01;;;;;;;;;;;19.70;50.00;;;18.61;52.05;100153.75;12255309;19;19922;-87
2023/03/23 15:29:13;;;;;;;;;;;19.70;50.00;;;18.60;51.99;100164.47;12253843;19;19911;-86
2023/03/23 15:33:15;;;;;;;;;;;19.70;49.80;;;18.53;51.74;100138.66;12253159;19;19936;-87
2023/03/23 15:37:31;;;;;;;;;;;19.70;49.90;;;18.57;51.93;100145.28;12243130;19;19923;-86
2023/03/23 15:41:33;;;;;;;;;;;19.70;50.10;;;18.56;52.12;100142.81;12242498;19;19953;-86
2023/03/23 15:45:34;;;;;;;;;;;19.70;50.00;;;18.53;52.00;100140.47;12253825;19;20252;-86
2023/03/23 15:49:36;;;;;;;;;;;19.70;49.70;;;18.40;51.83;100118.84;12248855;19;19930;-86
2023/03/23 15:53:38;;;;;;;;;;;19.70;49.40;;;18.49;51.93;100137.25;12252766;19;19930;-87
2023/03/23 15:57:39;;;;;;;;;;;19.70;49.40;;;18.61;51.65;100160.88;12249558;19;19934;-87
2023/03/23 16:01:41;;;;;;;;;;;19.70;49.60;;;18.48;51.74;100137.44;12250832;19;19915;-86
2023/03/23 16:05:43;;;;;;;;;;;19.70;49.80;;;18.52;51.65;100141.41;12248584;19;20340;-86
2023/03/23 16:09:44;;;;;;;;;;;19.70;49.40;;;18.51;51.66;100153.00;12251484;19;19939;-86
2023/03/23 16:13:46;;;;;;;;;;;19.70;49.70;;;18.63;51.59;100170.28;12254013;19;19923;-86
2023/03/23 16:17:47;;;;;;;;;;;19.70;49.50;;;18.65;51.77;100180.72;12251439;19;20002;-86
2023/03/23 16:21:49;;;;;;;;;;;19.70;49.50;;;18.65;51.63;100199.25;12242998;19;20333;-86
2023/03/23 16:25:50;;;;;;;;;;;19.70;49.50;;;18.63;51.68;100203.84;12245277;19;20019;-86
2023/03/23 16:29:51;;;;;;;;;;;19.70;49.40;;;18.61;51.75;100205.84;12250869;19;20276;-87
2023/03/23 16:33:54;;;;;;;;;;;19.70;49.50;;;18.44;51.40;100191.56;12251336;19;19911;-87
2023/03/23 16:37:56;;;;;;;;;;;19.70;49.40;;;18.53;51.49;100211.84;12249431;19;20002;-86
2023/03/23 16:41:57;;;;;;;;;;;19.70;49.30;;;18.51;51.66;100204.06;12246988;19;20264;-87
2023/03/23 16:45:59;;;;;;;;;;;19.60;49.50;;;18.39;51.48;100189.41;12249999;19;19935;-86
2023/03/23 16:50:00;;;;;;;;;;;19.60;49.40;;;18.38;51.35;100193.00;12248107;19;19950;-86
2023/03/23 16:54:02;;;;;;;;;;;19.50;49.40;;;18.39;51.59;100210.56;12246423;19;19911;-86
2023/03/23 16:58:04;;;;;;;;;;;19.50;49.40;;;18.40;51.37;100214.84;12249325;19;19943;-86
2023/03/23 17:02:06;;;;;;;;;;;19.50;49.50;;;18.31;51.22;100226.31;12248706;19;19918;-86
2023/03/23 17:06:08;;;;;;;;;;;19.50;49.50;;;18.29;51.51;100231.75;12252221;19;19926;-86
2023/03/23 17:10:10;;;;;;;;;;;19.40;49.50;;;18.12;51.25;100212.22;12248524;19;20347;-86
2023/03/23 17:14:11;;;;;;;;;;;19.40;49.50;;;18.19;51.13;100230.94;12260188;19;19915;-86
2023/03/23 17:18:14;;;;;;;;;;;19.30;49.50;;;18.21;51.41;100226.34;12250335;19;19923;-87
2023/03/23 17:22:16;;;;;;;;;;;19.30;49.50;;;18.13;51.18;100235.00;12248693;19;20344;-86
2023/03/23 17:26:17;;;;;;;;;;;19.20;49.50;;;18.09;51.25;100231.00;12249754;19;19922;-86
2023/03/23 17:30:19;;;;;;;;;;;19.20;49.60;;;17.88;51.16;100198.69;12247142;19;19990;-87
2023/03/23 17:34:21;;;;;;;;;;;19.20;49.60;;;17.89;51.01;100193.25;12250211;19;20376;-86
2023/03/23 17:38:22;;;;;;;;;;;19.10;49.60;;;18.02;51.30;100227.28;12246855;19;19953;-86
2023/03/23 17:42:24;;;;;;;;;;;19.10;49.60;;;18.11;51.25;100233.50;12244712;19;19922;-85
2023/03/23 17:46:26;;;;;;;;;;;19.10;49.60;;;17.87;51.21;100216.31;12246348;19;19915;-86
2023/03/23 17:50:27;;;;;;;;;;;19.10;49.60;;;18.04;50.94;100262.31;12246824;19;19917;-86
2023/03/23 17:54:29;;;;;;;;;;;19.10;49.60;;;17.78;51.24;100238.31;12247075;19;19935;-86
2023/03/23 17:58:31;;;;;;;;;;;19.10;49.60;;;17.91;51.03;100275.84;12245072;19;19927;-86
2023/03/23 18:02:34;;;;;;;;;;;19.00;49.60;;;17.91;51.19;100275.84;12247703;19;19915;-86
2023/03/23 18:06:36;;;;;;;;;;;19.00;49.60;;;17.92;51.00;100282.78;12248374;19;19907;-86
2023/03/23 18:10:39;;;;;;;;;;;19.00;49.70;;;17.98;50.92;100291.09;12245062;19;19935;-86
2023/03/23 18:14:40;;;;;;;;;;;19.00;49.90;;;17.64;51.13;100241.41;12247899;19;19919;-85
2023/03/23 18:18:42;;;;;;;;;;;19.00;50.00;;;17.67;51.22;100235.81;12233989;19;20333;-86
2023/03/23 18:22:44;;;;;;;;;;;18.90;50.00;;;17.67;50.93;100256.97;12246692;19;20622;-87
2023/03/23 18:26:45;;;;;;;;;;;18.90;50.00;;;17.42;50.97;100227.53;12245942;19;19986;-86
2023/03/23 18:30:48;;;;;;;;;;;18.80;50.20;;;17.72;51.11;100288.22;12257538;19;19915;-87
2023/03/23 18:34:50;;;;;;;;;;;18.70;49.90;;;17.42;51.06;100275.06;12257548;19;19983;-86